sensor_id;sensor_type;location;lat;lon;timestamp;temperature;humidity
9450;DHT22;4763;48.370;10.874;2022-07-10T14:54:03;26.20;93.30
9450;DHT22;4763;48.370;10.874;2022-07-10T14:56:53;26.10;90.20
9450;DHT22;4763;48.370;10.874;2022-07-10T14:59:40;26.30;89.60
9450;DHT22;4763;48.370;10.874;2022-07-10T15:02:27;25.70;91.60
9450;DHT22;4763;48.370;10.874;2022-07-10T15:13:07;25.40;92.70
9450;DHT22;4763;48.370;10.874;2022-07-10T15:15:56;26.00;93.00
9450;DHT22;4763;48.370;10.874;2022-07-10T15:18:45;25.20;93.00
9450;DHT22;4763;48.370;10.874;2022-07-10T15:21:32;25.00;90.00
9450;DHT22;4763;48.370;10.874;2022-07-10T15:24:20;24.70;91.10
9450;DHT22;4763;48.370;10.874;2022-07-10T15:27:25;24.20;91.20
9450;DHT22;4763;48.370;10.874;2022-07-10T16:04:58;25.80;92.60
9450;DHT22;4763;48.370;10.874;2022-07-10T16:08:09;25.00;90.50
9450;DHT22;4763;48.370;10.874;2022-07-10T16:10:57;24.60;89.10
9450;DHT22;4763;48.370;10.874;2022-07-10T16:13:44;24.60;90.10
9450;DHT22;4763;48.370;10.874;2022-07-10T16:16:31;24.80;89.80
9450;DHT22;4763;48.370;10.874;2022-07-10T16:19:18;24.50;91.20
9450;DHT22;4763;48.370;10.874;2022-07-10T21:30:44;14.40;99.90
9450;DHT22;4763;48.370;10.874;2022-07-10T21:33:31;14.40;99.90
9450;DHT22;4763;48.370;10.874;2022-07-10T21:36:19;14.40;99.90
9450;DHT22;4763;48.370;10.874;2022-07-10T21:39:06;14.30;99.90
9450;DHT22;4763;48.370;10.874;2022-07-10T21:41:54;14.40;99.90
9450;DHT22;4763;48.370;10.874;2022-07-10T21:44:41;14.50;99.90
9450;DHT22;4763;48.370;10.874;2022-07-10T21:47:32;14.50;99.90
9450;DHT22;4763;48.370;10.874;2022-07-10T21:50:20;14.50;99.90
9450;DHT22;4763;48.370;10.874;2022-07-10T21:53:08;14.50;99.90
9450;DHT22;4763;48.370;10.874;2022-07-10T21:55:55;14.40;99.90
9450;DHT22;4763;48.370;10.874;2022-07-10T21:58:42;14.30;99.90
9450;DHT22;4763;48.370;10.874;2022-07-10T22:01:29;14.30;99.90
9450;DHT22;4763;48.370;10.874;2022-07-10T22:04:19;14.30;99.90
9450;DHT22;4763;48.370;10.874;2022-07-10T22:07:07;14.20;99.90
9450;DHT22;4763;48.370;10.874;2022-07-10T22:09:54;14.10;99.90
9450;DHT22;4763;48.370;10.874;2022-07-10T22:12:41;14.10;99.90
9450;DHT22;4763;48.370;10.874;2022-07-10T22:15:28;14.10;99.90
9450;DHT22;4763;48.370;10.874;2022-07-10T22:18:16;14.00;99.90
9450;DHT22;4763;48.370;10.874;2022-07-10T22:21:05;14.10;99.90
9450;DHT22;4763;48.370;10.874;2022-07-10T22:23:52;14.00;99.90
9450;DHT22;4763;48.370;10.874;2022-07-10T22:26:40;13.90;99.90
9450;DHT22;4763;48.370;10.874;2022-07-10T22:29:27;13.80;99.90
9450;DHT22;4763;48.370;10.874;2022-07-10T22:32:14;13.80;99.90
9450;DHT22;4763;48.370;10.874;2022-07-10T22:35:02;13.80;99.90
9450;DHT22;4763;48.370;10.874;2022-07-10T22:37:51;13.80;99.90
9450;DHT22;4763;48.370;10.874;2022-07-10T22:40:38;13.70;99.90
9450;DHT22;4763;48.370;10.874;2022-07-10T22:43:26;13.70;99.90
9450;DHT22;4763;48.370;10.874;2022-07-10T22:46:13;13.70;99.90
9450;DHT22;4763;48.370;10.874;2022-07-10T22:49:01;13.80;99.90
9450;DHT22;4763;48.370;10.874;2022-07-10T22:51:48;13.80;99.90
9450;DHT22;4763;48.370;10.874;2022-07-10T22:54:37;13.80;99.90
9450;DHT22;4763;48.370;10.874;2022-07-10T22:57:24;13.80;99.90
9450;DHT22;4763;48.370;10.874;2022-07-10T23:00:12;13.70;99.90
9450;DHT22;4763;48.370;10.874;2022-07-10T23:02:59;13.60;99.90
9450;DHT22;4763;48.370;10.874;2022-07-10T23:05:46;13.60;99.90
9450;DHT22;4763;48.370;10.874;2022-07-10T23:08:33;13.50;99.90
9450;DHT22;4763;48.370;10.874;2022-07-10T23:11:23;13.40;99.90
9450;DHT22;4763;48.370;10.874;2022-07-10T23:14:10;13.40;99.90
9450;DHT22;4763;48.370;10.874;2022-07-10T23:16:58;13.30;99.90
9450;DHT22;4763;48.370;10.874;2022-07-10T23:19:45;13.30;99.90
9450;DHT22;4763;48.370;10.874;2022-07-10T23:22:32;13.20;99.90
9450;DHT22;4763;48.370;10.874;2022-07-10T23:25:19;13.10;99.90
9450;DHT22;4763;48.370;10.874;2022-07-10T23:28:08;13.20;99.90
9450;DHT22;4763;48.370;10.874;2022-07-10T23:30:55;13.10;99.90
9450;DHT22;4763;48.370;10.874;2022-07-10T23:33:42;13.00;99.90
9450;DHT22;4763;48.370;10.874;2022-07-10T23:36:30;13.00;99.90
9450;DHT22;4763;48.370;10.874;2022-07-10T23:39:17;12.90;99.90
9450;DHT22;4763;48.370;10.874;2022-07-10T23:42:05;13.00;99.90
9450;DHT22;4763;48.370;10.874;2022-07-10T23:44:53;12.90;99.90
9450;DHT22;4763;48.370;10.874;2022-07-10T23:47:40;13.00;99.90
9450;DHT22;4763;48.370;10.874;2022-07-10T23:50:28;13.00;99.90
9450;DHT22;4763;48.370;10.874;2022-07-10T23:53:14;13.00;99.90
9450;DHT22;4763;48.370;10.874;2022-07-10T23:56:01;13.00;99.90
9450;DHT22;4763;48.370;10.874;2022-07-10T23:58:49;12.80;99.90
